Saturday, February 13, 2016, 10:12 AM EST

KW99, Petersburg, Grant County Airport

Location: Petersburg, WV, United States Lat: 38.983
Local Time: 10:12 AM EST (15:12 GMT) Lon: -79.133
Time Zone: US/Eastern Elev: 961 ft

Show me the last for .
Show Decoded

2016-02-13 09:55 METAR KW99 131455Z AUTO 33012G21KT 10SM SCT031 BKN044 OVC050 M10/M19 A3029 RMK
                 AO2 T11011193 =
2016-02-13 09:35 METAR KW99 131435Z AUTO 32009G22KT 10SM SCT028 BKN049 OVC055 M10/M19 A3028 RMK
                 AO2 T10991188 =
2016-02-13 09:15 METAR KW99 131415Z AUTO 32013G19KT 10SM SCT029 SCT035 OVC049 M10/M18 A3027 RMK
                 AO2 T11001184 =
2016-02-13 08:55 METAR KW99 131355Z AUTO 30005G16KT 10SM SCT016 BKN035 OVC043 M10/M17 A3026 RMK
                 AO2 T10971173 =
2016-02-13 08:35 METAR KW99 131335Z AUTO 00000KT 3SM -SN SCT015 BKN034 OVC049 M10/M16 A3025 RMK
                 AO2 T10971159 =
2016-02-13 08:15 METAR KW99 131315Z AUTO 31005G25KT 10SM SCT016 BKN041 OVC050 M09/M18 A3024 RMK
                 AO2 T10941179 =
2016-02-13 07:55 METAR KW99 131255Z AUTO 00000KT 3SM -SN SCT013 BKN034 OVC048 M10/M15 A3023 RMK
                 AO2 T10971152 =
2016-02-13 07:35 METAR KW99 131235Z AUTO 30016G20KT 10SM SCT034 SCT043 BKN049 M09/M18 A3022 RMK
                 AO2 T10951184 =
2016-02-13 07:15 METAR KW99 131215Z AUTO 32011G25KT 280V350 10SM SCT034 BKN042 BKN050 M09/M18
                 A3021 RMK AO2 T10951180 =
2016-02-13 06:55 METAR KW99 131155Z AUTO 32011G19KT 10SM SCT030 BKN039 OVC047 M09/M18 A3019 RMK
                 AO2 T10931179 11055 21093 =
2016-02-13 06:35 METAR KW99 131135Z AUTO 31009G16KT 260V320 10SM SCT029 BKN042 OVC050 M09/M17
                 A3019 RMK AO2 T10931174 =
2016-02-13 06:15 METAR KW99 131115Z AUTO 30017G27KT 10SM SCT029 BKN041 OVC049 M09/M17 A3018 RMK
                 AO2 T10911171 =
2016-02-13 05:55 METAR KW99 131055Z AUTO 30007G24KT 10SM SCT028 BKN036 OVC045 M09/M17 A3017 RMK
                 AO2 T10891169 =
2016-02-13 05:35 METAR KW99 131035Z AUTO 32006G15KT 10SM SCT036 SCT041 OVC047 M09/M17 A3017 RMK
                 AO2 T10881174 =
2016-02-13 05:15 METAR KW99 131015Z AUTO 29011G20KT 280V340 10SM SCT037 BKN046 OVC055 M09/M17
                 A3016 RMK AO2 T10881170 =
2016-02-13 04:55 METAR KW99 130955Z AUTO 30004G23KT 10SM SCT037 BKN048 OVC055 M08/M17 A3014 RMK
                 AO2 T10841169 =
2016-02-13 04:35 METAR KW99 130935Z AUTO 30015G21KT 10SM SCT016 BKN040 OVC050 M08/M17 A3014 RMK
                 AO2 T10831168 =
2016-02-13 04:15 METAR KW99 130915Z AUTO 00000KT 5SM -SN SCT014 BKN024 OVC046 M08/M15 A3013 RMK
                 AO2 T10851148 =
2016-02-13 03:55 METAR KW99 130855Z AUTO 30005G29KT 7SM SCT023 BKN030 OVC045 M08/M15 A3013 RMK
                 AO2 T10801155 =
2016-02-13 03:35 METAR KW99 130835Z AUTO 31010G16KT 10SM SCT030 SCT037 OVC048 M08/M16 A3012 RMK
                 AO2 T10791159 =
2016-02-13 03:15 METAR KW99 130815Z AUTO 28005G20KT 10SM SCT031 BKN048 OVC060 M08/M16 A3011 RMK
                 AO2 T10761163 =
2016-02-13 02:55 METAR KW99 130755Z AUTO 32008G22KT 270V330 10SM SCT046 SCT050 M07/M16 A3010 RMK
                 AO2 T10751165 =
2016-02-13 02:35 METAR KW99 130735Z AUTO 00000KT 7SM -SN SCT015 SCT021 BKN038 M08/M13 A3008 RMK
                 AO2 T10801129 =
2016-02-13 02:15 METAR KW99 130715Z AUTO 32010G17KT 4SM -SN SCT017 BKN031 OVC037 M07/M13 A3009
                 RMK AO2 T10741126 =
2016-02-13 01:55 METAR KW99 130655Z AUTO 00000KT 7SM -SN SCT024 BKN038 OVC048 M06/M13 A3007 RMK
                 AO2 T10631131 =
2016-02-13 01:35 METAR KW99 130635Z AUTO 31005KT 10SM -SN SCT029 BKN039 OVC048 M06/M13 A3006 RMK
                 AO2 T10611130 =
2016-02-13 01:15 METAR KW99 130615Z AUTO 29019G29KT 10SM SCT013 BKN033 OVC041 M06/M13 A3004 RMK
                 AO2 T10571131 =
2016-02-13 00:55 METAR KW99 130555Z AUTO 30013G17KT 2 1/2SM -SN SCT005 BKN014 OVC028 M05/M10
                 A3002 RMK AO2 T10551104 11021 21058 410031125 =
2016-02-13 00:35 METAR KW99 130535Z AUTO 29010G18KT 5SM -SN SCT017 BKN026 OVC043 M04/M10 A3000
                 RMK AO2 T10391105 =
2016-02-13 00:15 METAR KW99 130515Z AUTO 24004KT 10SM SCT034 BKN046 OVC050 M04/M12 A2998 RMK AO2
                 T10361121 =
2016-02-12 23:55 METAR KW99 130455Z AUTO 28019G23KT 10SM SCT043 BKN050 M04/M13 A2998 RMK AO2
                 T10371130 =
2016-02-12 23:35 METAR KW99 130435Z AUTO 00000KT 10SM SCT039 BKN050 BKN060 M04/M12 A2999 RMK AO2
                 T10381123 =
2016-02-12 23:15 METAR KW99 130415Z AUTO 00000KT 2SM -SN SCT006 BKN016 OVC039 M04/M09 A2999 RMK
                 AO2 VIS 1/4V5 T10441094 =
2016-02-12 22:55 METAR KW99 130355Z AUTO 30011G17KT 10SM -SN SCT020 BKN028 OVC047 M03/M10 A2999
                 RMK AO2 T10351105 =
2016-02-12 22:35 METAR KW99 130335Z AUTO 00000KT 10SM -SN SCT028 BKN040 OVC048 M03/M11 A2999 RMK
                 AO2 T10341106 =
2016-02-12 22:15 METAR KW99 130315Z AUTO 00000KT 10SM -SN SCT027 BKN041 OVC049 M03/M10 A2999 RMK
                 AO2 T10331096 =
2016-02-12 21:55 METAR KW99 130255Z AUTO 00000KT 10SM -SN SCT027 BKN036 OVC048 M03/M10 A2999 RMK
                 AO2 T10321099 =
2016-02-12 21:35 METAR KW99 130235Z AUTO 00000KT 7SM -SN SCT020 BKN025 OVC042 M03/M10 A2999 RMK
                 AO2 T10321096 =
2016-02-12 21:15 METAR KW99 130215Z AUTO 00000KT 10SM BKN025 BKN036 OVC042 M03/M10 A2999 RMK AO2
                 T10311096 =
2016-02-12 20:55 METAR KW99 130155Z AUTO 00000KT 10SM BKN025 BKN033 OVC041 M03/M10 A2999 RMK AO2
                 T10301097 =
2016-02-12 20:35 METAR KW99 130135Z AUTO 26008KT 10SM SCT027 BKN049 OVC065 M03/M10 A2999 RMK AO2
                 T10271101 =
2016-02-12 20:15 METAR KW99 130115Z AUTO 28004KT 10SM SCT031 BKN050 OVC065 M02/M10 A2999 RMK AO2
                 T10251101 =
2016-02-12 19:55 METAR KW99 130055Z AUTO 30015G23KT 10SM SCT026 SCT043 OVC050 M02/M11 A2999 RMK
                 AO2 T10221108 =
2016-02-12 19:35 METAR KW99 130035Z AUTO 27008G24KT 10SM SCT032 BKN050 OVC060 M02/M10 A2999 RMK
                 AO2 T10211104 =
2016-02-12 19:15 METAR KW99 130015Z AUTO 00000KT 10SM SCT034 BKN048 OVC075 M03/M06 A2999 RMK AO2
                 T10321057 =
2016-02-12 18:55 METAR KW99 122355Z AUTO 00000KT 10SM SCT027 BKN047 OVC080 M03/M06 A2997 RMK AO2
                 T10351059 11003 21035 =
2016-02-12 18:35 METAR KW99 122335Z AUTO 00000KT 7SM -SN SCT018 BKN028 OVC047 M03/M06 A2997 RMK
                 AO2 T10331061 =
2016-02-12 18:15 METAR KW99 122315Z AUTO 00000KT 7SM -SN SCT018 OVC028 M03/M06 A2997 RMK AO2
                 T10331060 =
2016-02-12 17:55 METAR KW99 122255Z AUTO 00000KT 7SM -SN SCT020 BKN030 OVC047 M03/M06 A2995 RMK
                 AO2 T10311062 =
2016-02-12 17:35 METAR KW99 122235Z AUTO 00000KT 5SM -SN BKN026 BKN034 OVC047 M03/M06 A2995 RMK
                 AO2 T10301060 =
2016-02-12 17:15 METAR KW99 122215Z AUTO 00000KT 4SM -SN BKN023 OVC028 M03/M06 A2995 RMK AO2
                 T10271058 =
2016-02-12 16:55 METAR KW99 122155Z AUTO 00000KT 5SM -SN SCT021 BKN026 OVC043 M03/M06 A2995 RMK
                 AO2 T10271060 =
2016-02-12 16:35 METAR KW99 122135Z AUTO 00000KT 5SM -SN SCT019 BKN035 OVC050 M02/M06 A2995 RMK
                 AO2 T10251060 =
2016-02-12 16:15 METAR KW99 122115Z AUTO 00000KT 3SM -SN SCT016 BKN021 OVC037 M02/M07 A2995 RMK
                 AO2 T10201068 =
2016-02-12 15:55 METAR KW99 122055Z AUTO 00000KT 10SM SCT024 BKN036 OVC046 M02/M07 A2997 RMK AO2
                 T10171068 =
2016-02-12 15:35 METAR KW99 122035Z AUTO 00000KT 10SM SCT025 BKN029 OVC034 M01/M07 A2996 RMK AO2
                 T10151066 =
2016-02-12 15:15 METAR KW99 122015Z AUTO 00000KT 10SM SCT028 OVC036 M01/M08 A2995 RMK AO2
                 T10081084 =
2016-02-12 14:55 METAR KW99 121955Z AUTO 00000KT 10SM OVC036 00/M09 A2995 RMK AO2 T10041088 =
2016-02-12 14:35 METAR KW99 121935Z AUTO 00000KT 10SM OVC039 00/M09 A2996 RMK AO2 T10051087 =
2016-02-12 14:15 METAR KW99 121915Z AUTO 00000KT 10SM OVC037 00/M09 A2998 RMK AO2 T10031095 =
2016-02-12 13:55 METAR KW99 121855Z AUTO 00000KT 10SM OVC037 M01/M11 A2999 RMK AO2 LTG DSNT SE
                 T10091107 =
2016-02-12 13:35 METAR KW99 121835Z AUTO 00000KT 10SM OVC038 M01/M11 A3000 RMK AO2 T10071111 =
2016-02-12 13:15 METAR KW99 121815Z AUTO 00000KT 10SM SCT030 OVC037 M01/M12 A3002 RMK AO2
                 T10061118 =
2016-02-12 12:55 METAR KW99 121755Z AUTO 00000KT 10SM BKN037 BKN043 OVC049 M01/M13 A3004 RMK AO2
                 T10141130 11012 21116 =
2016-02-12 12:35 METAR KW99 121735Z AUTO 00000KT 10SM BKN042 OVC048 M01/M13 A3006 RMK AO2
                 T10121130 =
2016-02-12 12:15 METAR KW99 121715Z AUTO 00000KT 10SM BKN041 OVC049 M02/M13 A3008 RMK AO2
                 T10251135 =
2016-02-12 11:55 METAR KW99 121655Z AUTO 00000KT 10SM SCT039 BKN045 OVC060 M03/M13 A3010 RMK AO2
                 T10321135 =
2016-02-12 11:35 METAR KW99 121635Z AUTO 00000KT 10SM SCT039 SCT046 BKN060 M04/M13 A3012 RMK AO2
                 T10411135 =
2016-02-12 11:15 METAR KW99 121615Z AUTO 00000KT 10SM SCT055 BKN075 M05/M13 A3012 RMK AO2
                 T10461131 =
2016-02-12 10:55 METAR KW99 121555Z AUTO 00000KT 10SM SCT055 BKN065 BKN085 M05/M13 A3013 RMK AO2
                 T10501128 =
2016-02-12 10:35 METAR KW99 121535Z AUTO 00000KT 10SM SCT070 BKN080 M06/M12 A3014 RMK AO2
                 T10641124 =
2016-02-12 10:15 METAR KW99 121515Z AUTO 00000KT 10SM SCT080 BKN090 BKN120 M07/M13 A3015 RMK AO2
                 T10741130 =

Support USWX by starting your Amazon purchase here.